Meteo Giornale » Osservazioni meteo El Salvador » El Salvador Intl-Comalapa
ore: 21:00 - Osservazioni Meteo El Salvador Intl-Comalapa
Lat. 13° 26' N Lon. 89° 3' W Alt. 25 metri s.l.m.
24 °C
Poco Nuvoloso
Temp. 24 Ore
24 °C
36 °C
Est/Sud-Est
7.4 Km/h
Dew point 24 °C
Umidità 100 %
Visibilità 10 Km
Il sole sorge alle ore 05:44
Il sole tramonta alle ore 18:08
| Data e Ora | Cielo e Fenomeni | T °C | DP °C | Um. % | Pres. hPa | Vis. km | Vento km/h | |
|---|---|---|---|---|---|---|---|---|
| Oggi h: 21:00 | Poco Nuvoloso | 24 | 24 | 100 | 1012 | 10 | E/SE 7.4 | |
| Oggi h: 20:00 | Temporale nelle vicinanze | 24 | 23 | 94 | 1011 | 10 | N 5.5 | |
| Oggi h: 19:16 | Temporale | 25 | 23 | 88 | 1010 | 10 | N/NO 11.1 | |
| Oggi h: 19:00 | Temporale | 24 | 23 | 94 | 1010 | 4 | NO 22.2 | |
| Oggi h: 18:49 | Temporale | 25 | 23 | 88 | 1012 | 3 | N 7.4 | |
| Oggi h: 18:40 | Temporale | 25 | 23 | 88 | 1011 | 7 | NO 14.8 | |
| Oggi h: 18:09 | Temporale | 25 | 22 | 83 | 1010 | 3 | N 35.2 | |
| Oggi h: 18:00 | Temporale | 31 | 25 | 70 | 1011 | 3 | N 16.7 | |
| Oggi h: 17:51 | Temporale | 31 | 25 | 70 | 1010 | 3 | NO 11.1 | |
| Oggi h: 17:45 | Temporale | 31 | 25 | 70 | 1010 | 5 | O/NO 13 | |
| Oggi h: 17:40 | Temporale | 31 | 25 | 70 | 1009 | 8 | O/NO 14.8 | |
| Oggi h: 17:00 | Poco Nuvoloso | 33 | 25 | 62 | 1009 | 10 | O/SO 16.7 | |
| Oggi h: 16:50 | Poco Nuvoloso | 33 | 25 | 62 | 1009 | 10 | O/SO 16.7 | |
| Oggi h: 16:00 | Poco Nuvoloso | 33 | 25 | 62 | 1008 | 10 | O/SO 16.7 | |
| Oggi h: 15:50 | Poco Nuvoloso | 33 | 25 | 62 | 1008 | 10 | O/SO 16.7 | |
| Oggi h: 15:00 | Poco Nuvoloso | 33 | 25 | 62 | 1008 | 10 | SO 16.7 | |
| Oggi h: 14:50 | Poco Nuvoloso | 33 | 25 | 62 | 1008 | 10 | SO 16.7 | |
| Oggi h: 14:00 | Poco Nuvoloso | 34 | 25 | 59 | 1009 | 10 | O/SO 18.5 | |
| Oggi h: 13:50 | Poco Nuvoloso | 34 | 25 | 59 | 1009 | 10 | O/SO 18.5 | |
| Oggi h: 13:00 | Poco Nuvoloso | 35 | 24 | 53 | 1010 | 10 | SO 16.7 | |
| Oggi h: 12:50 | Poco Nuvoloso | 35 | 24 | 53 | 1010 | 10 | SO 16.7 | |
| Oggi h: 12:00 | Poco Nuvoloso | 35 | 24 | 53 | 1010 | 10 | SO 14.8 | |
| Oggi h: 11:50 | Poco Nuvoloso | 35 | 24 | 53 | 1010 | 10 | SO 14.8 | |
| Oggi h: 11:00 | Poco Nuvoloso | 36 | 22 | 44 | 1011 | 10 | NO 9.3 | |
| Oggi h: 10:50 | Poco Nuvoloso | 36 | 22 | 44 | 1011 | 10 | NO 9.3 | |
| Oggi h: 10:00 | Sereno | 35 | 22 | 47 | 1011 | 10 | N 13 | |
| Oggi h: 09:50 | Sereno | 35 | 22 | 47 | 1011 | 10 | N 13 | |
| Oggi h: 09:00 | Sereno | 34 | 22 | 49 | 1012 | 10 | N/NE 14.8 | |
| Oggi h: 08:50 | Sereno | 34 | 22 | 49 | 1012 | 10 | N/NE 14.8 | |
| Oggi h: 08:00 | Sereno | 32 | 22 | 55 | 1011 | 10 | N/NE 11.1 | |
| Oggi h: 07:50 | Sereno | 32 | 22 | 55 | 1011 | 10 | N/NE 11.1 | |
| Oggi h: 07:38 | Sereno | 31 | 22 | 58 | 1011 | 10 | N/NE 11.1 | |
| Oggi h: 07:00 | Sereno | 29 | 22 | 66 | 1011 | 10 | N/NE 9.3 | |
| Oggi h: 06:50 | Sereno | 29 | 22 | 66 | 1011 | 10 | N/NE 11.1 | |
| Oggi h: 06:18 | Sereno | 28 | 22 | 69 | 1011 | 10 | N/NE 11.1 | |
| Oggi h: 06:00 | Sereno | 26 | 22 | 78 | 1010 | 10 | NE 11.1 | |
| Oggi h: 05:50 | Sereno | 26 | 22 | 78 | 1010 | 10 | NE 11.1 | |
| Oggi h: 05:00 | Poco Nuvoloso | 27 | 22 | 74 | 1010 | 10 | N 3.7 | |
| Oggi h: 04:00 | Nuvoloso | 26 | 24 | 88 | 1010 | 10 | N 5.5 | |
| Oggi h: 03:00 | Nuvoloso | 27 | 25 | 88 | 1011 | 10 | N 3.7 | |
| Oggi h: 02:00 | Nuvoloso | 27 | 25 | 88 | 1011 | 10 | N 1.8 | |
| Oggi h: 01:00 | Nuvoloso | 27 | 25 | 88 | 1011 | 10 | N 1.8 | |
| Oggi h: 00:00 | Poco Nuvoloso | 27 | 24 | 83 | 1012 | 10 | N 5.5 | |
| Ieri h: 23:00 | Nuvoloso | 28 | 25 | 83 | 1013 | 10 | O 9.3 | |
| Ieri h: 22:29 | Temporale nelle vicinanze | 29 | 26 | 83 | 1013 | 10 | O 11.1 | |
| Ieri h: 22:00 | Temporale | 30 | 26 | 79 | 1013 | 5 | N/NO 7.4 | |
| Ieri h: 21:31 | Pioggia | 29 | 26 | 83 | 1012 | 5 | N 1.8 | |



